METAR Data
IDs: Format: Raw Decoded Include TAF

Data at: 1340 UTC 07 Oct 2022

LFPO 071330Z 19005KT 150V260 CAVOK 19/06 Q1022 NOSIG